sensor_id;sensor_type;location;lat;lon;timestamp;P1;durP1;ratioP1;P2;durP2;ratioP2
60336;SDS011;46978;50.288;28.624;2024-01-25T00:00:24;10.03;;;5.71;;
60336;SDS011;46978;50.288;28.624;2024-01-25T00:01:26;9.05;;;4.94;;
60336;SDS011;46978;50.288;28.624;2024-01-25T00:02:28;6.88;;;3.83;;
60336;SDS011;46978;50.288;28.624;2024-01-25T00:03:29;8.45;;;4.91;;
60336;SDS011;46978;50.288;28.624;2024-01-25T00:04:31;9.96;;;5.16;;
60336;SDS011;46978;50.288;28.624;2024-01-25T00:05:32;9.46;;;5.51;;
60336;SDS011;46978;50.288;28.624;2024-01-25T00:06:34;10.83;;;5.69;;
60336;SDS011;46978;50.288;28.624;2024-01-25T00:07:44;10.31;;;5.91;;
60336;SDS011;46978;50.288;28.624;2024-01-25T00:08:46;9.98;;;5.38;;
60336;SDS011;46978;50.288;28.624;2024-01-25T00:09:48;18.08;;;7.70;;
60336;SDS011;46978;50.288;28.624;2024-01-25T00:10:50;13.29;;;6.63;;
60336;SDS011;46978;50.288;28.624;2024-01-25T00:11:52;8.81;;;5.15;;
60336;SDS011;46978;50.288;28.624;2024-01-25T00:12:53;14.13;;;7.91;;
60336;SDS011;46978;50.288;28.624;2024-01-25T00:13:55;11.44;;;6.96;;
60336;SDS011;46978;50.288;28.624;2024-01-25T00:14:56;16.69;;;7.36;;
60336;SDS011;46978;50.288;28.624;2024-01-25T00:15:58;9.46;;;5.50;;
60336;SDS011;46978;50.288;28.624;2024-01-25T00:17:00;12.06;;;6.73;;
60336;SDS011;46978;50.288;28.624;2024-01-25T00:18:02;12.32;;;6.69;;
60336;SDS011;46978;50.288;28.624;2024-01-25T00:19:03;37.02;;;14.38;;
60336;SDS011;46978;50.288;28.624;2024-01-25T00:20:05;36.89;;;15.47;;
60336;SDS011;46978;50.288;28.624;2024-01-25T00:21:07;36.51;;;14.73;;
60336;SDS011;46978;50.288;28.624;2024-01-25T00:22:09;38.89;;;16.07;;
60336;SDS011;46978;50.288;28.624;2024-01-25T00:23:11;40.21;;;15.35;;
60336;SDS011;46978;50.288;28.624;2024-01-25T00:24:12;49.84;;;18.01;;
60336;SDS011;46978;50.288;28.624;2024-01-25T00:25:14;33.61;;;11.07;;
60336;SDS011;46978;50.288;28.624;2024-01-25T00:26:16;39.48;;;12.92;;
60336;SDS011;46978;50.288;28.624;2024-01-25T00:27:18;34.92;;;12.30;;
60336;SDS011;46978;50.288;28.624;2024-01-25T00:28:19;37.39;;;12.76;;
60336;SDS011;46978;50.288;28.624;2024-01-25T00:29:21;30.34;;;11.36;;
60336;SDS011;46978;50.288;28.624;2024-01-25T00:30:23;26.63;;;10.83;;
60336;SDS011;46978;50.288;28.624;2024-01-25T00:31:25;27.04;;;11.94;;
60336;SDS011;46978;50.288;28.624;2024-01-25T00:32:26;22.19;;;8.51;;
60336;SDS011;46978;50.288;28.624;2024-01-25T00:33:28;27.11;;;9.78;;
60336;SDS011;46978;50.288;28.624;2024-01-25T00:34:30;16.88;;;7.37;;
60336;SDS011;46978;50.288;28.624;2024-01-25T00:35:32;21.95;;;8.52;;
60336;SDS011;46978;50.288;28.624;2024-01-25T00:36:35;15.98;;;7.22;;
60336;SDS011;46978;50.288;28.624;2024-01-25T00:37:37;19.63;;;7.53;;
60336;SDS011;46978;50.288;28.624;2024-01-25T00:38:40;19.75;;;8.73;;
60336;SDS011;46978;50.288;28.624;2024-01-25T00:39:43;15.59;;;7.79;;
60336;SDS011;46978;50.288;28.624;2024-01-25T00:40:45;12.07;;;5.87;;
60336;SDS011;46978;50.288;28.624;2024-01-25T00:41:47;11.81;;;5.91;;
60336;SDS011;46978;50.288;28.624;2024-01-25T00:42:52;16.00;;;8.04;;
60336;SDS011;46978;50.288;28.624;2024-01-25T00:43:55;19.73;;;8.85;;
60336;SDS011;46978;50.288;28.624;2024-01-25T00:44:57;17.62;;;8.04;;
60336;SDS011;46978;50.288;28.624;2024-01-25T00:45:59;15.17;;;7.37;;
60336;SDS011;46978;50.288;28.624;2024-01-25T00:47:01;16.90;;;8.81;;
60336;SDS011;46978;50.288;28.624;2024-01-25T00:48:04;17.72;;;8.45;;
60336;SDS011;46978;50.288;28.624;2024-01-25T00:49:06;16.49;;;9.12;;
60336;SDS011;46978;50.288;28.624;2024-01-25T00:50:09;16.33;;;8.29;;
60336;SDS011;46978;50.288;28.624;2024-01-25T00:51:14;16.43;;;8.75;;
60336;SDS011;46978;50.288;28.624;2024-01-25T00:52:17;23.96;;;9.83;;
60336;SDS011;46978;50.288;28.624;2024-01-25T00:53:19;26.39;;;10.23;;
60336;SDS011;46978;50.288;28.624;2024-01-25T00:54:21;21.35;;;9.55;;
60336;SDS011;46978;50.288;28.624;2024-01-25T00:55:25;25.99;;;10.48;;
60336;SDS011;46978;50.288;28.624;2024-01-25T00:56:28;21.84;;;8.90;;
60336;SDS011;46978;50.288;28.624;2024-01-25T00:57:30;21.95;;;9.96;;
60336;SDS011;46978;50.288;28.624;2024-01-25T00:58:32;13.77;;;6.29;;
60336;SDS011;46978;50.288;28.624;2024-01-25T00:59:35;20.72;;;9.42;;
60336;SDS011;46978;50.288;28.624;2024-01-25T01:00:37;18.29;;;9.36;;
60336;SDS011;46978;50.288;28.624;2024-01-25T01:01:39;13.52;;;6.77;;
60336;SDS011;46978;50.288;28.624;2024-01-25T01:02:43;14.96;;;5.49;;
60336;SDS011;46978;50.288;28.624;2024-01-25T01:03:46;15.13;;;7.62;;
60336;SDS011;46978;50.288;28.624;2024-01-25T01:04:48;20.85;;;9.70;;
60336;SDS011;46978;50.288;28.624;2024-01-25T01:05:50;19.65;;;9.02;;
60336;SDS011;46978;50.288;28.624;2024-01-25T01:06:53;15.09;;;6.96;;
60336;SDS011;46978;50.288;28.624;2024-01-25T01:07:55;19.46;;;7.75;;
60336;SDS011;46978;50.288;28.624;2024-01-25T01:08:57;26.08;;;10.40;;
60336;SDS011;46978;50.288;28.624;2024-01-25T01:09:59;24.36;;;10.78;;
60336;SDS011;46978;50.288;28.624;2024-01-25T01:11:00;14.44;;;6.90;;
60336;SDS011;46978;50.288;28.624;2024-01-25T01:12:03;30.03;;;11.85;;
60336;SDS011;46978;50.288;28.624;2024-01-25T01:13:05;27.56;;;12.81;;
60336;SDS011;46978;50.288;28.624;2024-01-25T01:14:06;28.22;;;13.06;;
60336;SDS011;46978;50.288;28.624;2024-01-25T01:15:08;32.73;;;13.04;;
60336;SDS011;46978;50.288;28.624;2024-01-25T01:16:12;25.42;;;10.15;;
60336;SDS011;46978;50.288;28.624;2024-01-25T01:17:13;48.13;;;16.94;;
60336;SDS011;46978;50.288;28.624;2024-01-25T01:18:15;80.18;;;21.73;;
60336;SDS011;46978;50.288;28.624;2024-01-25T01:19:17;63.74;;;21.08;;
60336;SDS011;46978;50.288;28.624;2024-01-25T01:20:21;50.33;;;17.10;;
60336;SDS011;46978;50.288;28.624;2024-01-25T01:21:22;21.53;;;9.01;;
60336;SDS011;46978;50.288;28.624;2024-01-25T01:22:24;27.72;;;10.91;;
60336;SDS011;46978;50.288;28.624;2024-01-25T01:23:25;26.35;;;11.38;;
60336;SDS011;46978;50.288;28.624;2024-01-25T01:24:27;36.44;;;14.34;;
60336;SDS011;46978;50.288;28.624;2024-01-25T01:25:30;29.39;;;12.24;;
60336;SDS011;46978;50.288;28.624;2024-01-25T01:26:32;35.69;;;13.31;;
60336;SDS011;46978;50.288;28.624;2024-01-25T01:27:34;33.89;;;13.74;;
60336;SDS011;46978;50.288;28.624;2024-01-25T01:28:35;34.24;;;12.49;;
60336;SDS011;46978;50.288;28.624;2024-01-25T01:29:37;25.01;;;9.54;;
60336;SDS011;46978;50.288;28.624;2024-01-25T01:30:39;21.97;;;9.19;;
60336;SDS011;46978;50.288;28.624;2024-01-25T01:31:40;20.37;;;7.91;;
60336;SDS011;46978;50.288;28.624;2024-01-25T01:32:42;13.16;;;6.88;;
60336;SDS011;46978;50.288;28.624;2024-01-25T01:33:43;11.76;;;5.49;;
60336;SDS011;46978;50.288;28.624;2024-01-25T01:34:45;14.07;;;6.31;;
60336;SDS011;46978;50.288;28.624;2024-01-25T01:35:47;17.00;;;8.77;;
60336;SDS011;46978;50.288;28.624;2024-01-25T01:36:48;12.55;;;6.11;;
60336;SDS011;46978;50.288;28.624;2024-01-25T01:37:50;13.32;;;6.61;;
60336;SDS011;46978;50.288;28.624;2024-01-25T01:38:52;9.89;;;5.68;;
60336;SDS011;46978;50.288;28.624;2024-01-25T01:39:53;9.96;;;5.19;;
60336;SDS011;46978;50.288;28.624;2024-01-25T01:40:55;7.48;;;4.52;;
60336;SDS011;46978;50.288;28.624;2024-01-25T01:41:57;7.40;;;4.55;;
60336;SDS011;46978;50.288;28.624;2024-01-25T01:42:59;9.65;;;5.10;;
60336;SDS011;46978;50.288;28.624;2024-01-25T01:44:01;7.17;;;4.21;;
60336;SDS011;46978;50.288;28.624;2024-01-25T01:45:03;6.36;;;4.20;;
60336;SDS011;46978;50.288;28.624;2024-01-25T01:46:10;7.86;;;3.68;;
60336;SDS011;46978;50.288;28.624;2024-01-25T01:47:13;8.36;;;4.47;;
60336;SDS011;46978;50.288;28.624;2024-01-25T01:48:16;6.15;;;3.94;;
60336;SDS011;46978;50.288;28.624;2024-01-25T01:49:18;8.28;;;4.62;;
60336;SDS011;46978;50.288;28.624;2024-01-25T01:50:20;5.89;;;3.58;;
60336;SDS011;46978;50.288;28.624;2024-01-25T01:51:22;5.76;;;3.43;;
60336;SDS011;46978;50.288;28.624;2024-01-25T01:52:23;10.19;;;4.67;;
60336;SDS011;46978;50.288;28.624;2024-01-25T01:53:25;8.96;;;5.22;;
60336;SDS011;46978;50.288;28.624;2024-01-25T01:54:28;9.04;;;5.59;;
60336;SDS011;46978;50.288;28.624;2024-01-25T01:55:31;9.70;;;5.87;;
60336;SDS011;46978;50.288;28.624;2024-01-25T01:56:34;9.80;;;6.20;;
60336;SDS011;46978;50.288;28.624;2024-01-25T01:57:37;8.79;;;5.11;;
60336;SDS011;46978;50.288;28.624;2024-01-25T01:58:39;6.17;;;3.89;;
60336;SDS011;46978;50.288;28.624;2024-01-25T01:59:41;4.51;;;2.66;;
60336;SDS011;46978;50.288;28.624;2024-01-25T02:00:43;5.40;;;3.13;;
60336;SDS011;46978;50.288;28.624;2024-01-25T02:01:48;5.54;;;2.71;;
60336;SDS011;46978;50.288;28.624;2024-01-25T02:02:50;6.70;;;3.59;;
60336;SDS011;46978;50.288;28.624;2024-01-25T02:03:52;6.30;;;3.23;;
60336;SDS011;46978;50.288;28.624;2024-01-25T02:04:54;6.56;;;3.22;;
60336;SDS011;46978;50.288;28.624;2024-01-25T02:05:55;7.16;;;3.89;;
60336;SDS011;46978;50.288;28.624;2024-01-25T02:06:58;7.12;;;4.38;;
60336;SDS011;46978;50.288;28.624;2024-01-25T02:07:59;5.78;;;3.01;;
60336;SDS011;46978;50.288;28.624;2024-01-25T02:09:01;6.89;;;3.29;;
60336;SDS011;46978;50.288;28.624;2024-01-25T02:10:03;4.58;;;2.80;;
60336;SDS011;46978;50.288;28.624;2024-01-25T02:11:06;5.36;;;2.86;;
60336;SDS011;46978;50.288;28.624;2024-01-25T02:12:07;5.62;;;2.81;;
60336;SDS011;46978;50.288;28.624;2024-01-25T02:13:09;6.26;;;3.54;;
60336;SDS011;46978;50.288;28.624;2024-01-25T02:14:10;5.36;;;3.16;;
60336;SDS011;46978;50.288;28.624;2024-01-25T02:15:12;5.05;;;2.94;;
60336;SDS011;46978;50.288;28.624;2024-01-25T02:16:15;4.43;;;2.85;;
60336;SDS011;46978;50.288;28.624;2024-01-25T02:17:17;5.82;;;3.53;;
60336;SDS011;46978;50.288;28.624;2024-01-25T02:18:18;4.76;;;3.05;;
60336;SDS011;46978;50.288;28.624;2024-01-25T02:19:20;5.07;;;3.52;;
60336;SDS011;46978;50.288;28.624;2024-01-25T02:20:22;4.81;;;3.03;;
60336;SDS011;46978;50.288;28.624;2024-01-25T02:21:24;4.56;;;2.76;;
60336;SDS011;46978;50.288;28.624;2024-01-25T02:22:25;7.05;;;2.64;;
60336;SDS011;46978;50.288;28.624;2024-01-25T02:23:27;5.64;;;3.09;;
60336;SDS011;46978;50.288;28.624;2024-01-25T02:24:29;5.24;;;2.50;;
60336;SDS011;46978;50.288;28.624;2024-01-25T02:25:32;4.98;;;2.97;;
60336;SDS011;46978;50.288;28.624;2024-01-25T02:26:34;5.65;;;2.62;;
60336;SDS011;46978;50.288;28.624;2024-01-25T02:27:37;5.13;;;2.83;;
60336;SDS011;46978;50.288;28.624;2024-01-25T02:28:38;4.62;;;2.71;;
60336;SDS011;46978;50.288;28.624;2024-01-25T02:29:40;4.57;;;2.82;;
60336;SDS011;46978;50.288;28.624;2024-01-25T02:30:42;4.94;;;3.07;;
60336;SDS011;46978;50.288;28.624;2024-01-25T02:31:43;5.74;;;2.68;;
60336;SDS011;46978;50.288;28.624;2024-01-25T02:32:45;4.99;;;2.83;;
60336;SDS011;46978;50.288;28.624;2024-01-25T02:33:46;4.91;;;3.04;;
60336;SDS011;46978;50.288;28.624;2024-01-25T02:34:48;5.32;;;2.60;;
60336;SDS011;46978;50.288;28.624;2024-01-25T02:35:50;4.86;;;2.85;;
60336;SDS011;46978;50.288;28.624;2024-01-25T02:36:51;6.02;;;3.09;;
60336;SDS011;46978;50.288;28.624;2024-01-25T02:37:53;4.63;;;2.83;;
60336;SDS011;46978;50.288;28.624;2024-01-25T02:38:54;6.11;;;2.86;;
60336;SDS011;46978;50.288;28.624;2024-01-25T02:39:56;6.79;;;3.45;;
60336;SDS011;46978;50.288;28.624;2024-01-25T02:40:58;4.86;;;2.74;;
60336;SDS011;46978;50.288;28.624;2024-01-25T02:41:59;5.21;;;3.02;;
60336;SDS011;46978;50.288;28.624;2024-01-25T02:43:01;6.43;;;3.34;;
60336;SDS011;46978;50.288;28.624;2024-01-25T02:44:03;5.16;;;2.83;;
60336;SDS011;46978;50.288;28.624;2024-01-25T02:45:05;5.83;;;3.01;;
60336;SDS011;46978;50.288;28.624;2024-01-25T02:46:08;5.01;;;2.93;;
60336;SDS011;46978;50.288;28.624;2024-01-25T02:47:09;5.80;;;2.89;;
60336;SDS011;46978;50.288;28.624;2024-01-25T02:48:11;6.59;;;3.64;;
60336;SDS011;46978;50.288;28.624;2024-01-25T02:49:13;5.56;;;3.12;;
60336;SDS011;46978;50.288;28.624;2024-01-25T02:50:16;5.78;;;2.93;;
60336;SDS011;46978;50.288;28.624;2024-01-25T02:51:18;5.84;;;2.74;;
60336;SDS011;46978;50.288;28.624;2024-01-25T02:52:20;4.09;;;2.71;;
60336;SDS011;46978;50.288;28.624;2024-01-25T02:53:21;5.19;;;2.79;;
60336;SDS011;46978;50.288;28.624;2024-01-25T02:54:23;5.53;;;2.93;;
60336;SDS011;46978;50.288;28.624;2024-01-25T02:55:26;5.59;;;2.91;;
60336;SDS011;46978;50.288;28.624;2024-01-25T02:56:28;5.13;;;2.93;;
60336;SDS011;46978;50.288;28.624;2024-01-25T02:57:30;5.56;;;3.01;;
60336;SDS011;46978;50.288;28.624;2024-01-25T02:58:32;5.64;;;3.17;;
60336;SDS011;46978;50.288;28.624;2024-01-25T02:59:33;6.58;;;3.74;;
60336;SDS011;46978;50.288;28.624;2024-01-25T03:00:35;6.05;;;3.42;;
60336;SDS011;46978;50.288;28.624;2024-01-25T03:01:40;5.75;;;3.66;;
60336;SDS011;46978;50.288;28.624;2024-01-25T03:02:44;6.19;;;3.51;;
60336;SDS011;46978;50.288;28.624;2024-01-25T03:03:46;8.66;;;5.80;;
60336;SDS011;46978;50.288;28.624;2024-01-25T03:04:48;8.36;;;5.12;;
60336;SDS011;46978;50.288;28.624;2024-01-25T03:05:51;7.04;;;3.61;;
60336;SDS011;46978;50.288;28.624;2024-01-25T03:06:53;6.05;;;2.96;;
60336;SDS011;46978;50.288;28.624;2024-01-25T03:07:54;6.27;;;3.36;;
60336;SDS011;46978;50.288;28.624;2024-01-25T03:08:56;5.71;;;3.24;;
60336;SDS011;46978;50.288;28.624;2024-01-25T03:09:58;6.09;;;3.46;;
60336;SDS011;46978;50.288;28.624;2024-01-25T03:10:59;7.43;;;3.76;;
60336;SDS011;46978;50.288;28.624;2024-01-25T03:12:01;6.86;;;3.46;;
60336;SDS011;46978;50.288;28.624;2024-01-25T03:13:03;6.40;;;4.08;;
60336;SDS011;46978;50.288;28.624;2024-01-25T03:14:05;7.69;;;3.54;;
60336;SDS011;46978;50.288;28.624;2024-01-25T03:15:07;6.71;;;3.91;;
60336;SDS011;46978;50.288;28.624;2024-01-25T03:16:12;6.24;;;3.39;;
60336;SDS011;46978;50.288;28.624;2024-01-25T03:17:13;7.09;;;4.04;;
60336;SDS011;46978;50.288;28.624;2024-01-25T03:18:15;6.01;;;3.37;;
60336;SDS011;46978;50.288;28.624;2024-01-25T03:19:17;7.04;;;3.57;;
60336;SDS011;46978;50.288;28.624;2024-01-25T03:20:20;7.31;;;4.04;;
60336;SDS011;46978;50.288;28.624;2024-01-25T03:21:21;7.57;;;4.29;;
60336;SDS011;46978;50.288;28.624;2024-01-25T03:22:23;6.47;;;3.84;;
60336;SDS011;46978;50.288;28.624;2024-01-25T03:23:24;8.74;;;4.43;;
60336;SDS011;46978;50.288;28.624;2024-01-25T03:24:26;8.53;;;4.17;;
60336;SDS011;46978;50.288;28.624;2024-01-25T03:25:28;8.50;;;4.41;;
60336;SDS011;46978;50.288;28.624;2024-01-25T03:26:30;8.55;;;4.58;;
60336;SDS011;46978;50.288;28.624;2024-01-25T03:27:32;9.57;;;4.51;;
60336;SDS011;46978;50.288;28.624;2024-01-25T03:28:34;7.12;;;4.29;;
60336;SDS011;46978;50.288;28.624;2024-01-25T03:29:35;11.32;;;4.65;;
60336;SDS011;46978;50.288;28.624;2024-01-25T03:30:37;8.45;;;4.18;;
60336;SDS011;46978;50.288;28.624;2024-01-25T03:31:39;7.86;;;4.25;;
60336;SDS011;46978;50.288;28.624;2024-01-25T03:32:41;8.57;;;4.36;;
60336;SDS011;46978;50.288;28.624;2024-01-25T03:33:42;6.65;;;3.89;;
60336;SDS011;46978;50.288;28.624;2024-01-25T03:34:44;5.37;;;3.74;;
60336;SDS011;46978;50.288;28.624;2024-01-25T03:35:45;6.46;;;3.42;;
60336;SDS011;46978;50.288;28.624;2024-01-25T03:36:47;7.65;;;3.86;;
60336;SDS011;46978;50.288;28.624;2024-01-25T03:37:49;7.75;;;4.16;;
60336;SDS011;46978;50.288;28.624;2024-01-25T03:38:50;7.36;;;4.29;;
60336;SDS011;46978;50.288;28.624;2024-01-25T03:39:52;7.67;;;4.09;;
60336;SDS011;46978;50.288;28.624;2024-01-25T03:40:54;6.57;;;3.93;;
60336;SDS011;46978;50.288;28.624;2024-01-25T03:41:56;9.15;;;4.23;;
60336;SDS011;46978;50.288;28.624;2024-01-25T03:42:57;6.21;;;3.66;;
60336;SDS011;46978;50.288;28.624;2024-01-25T03:43:59;7.96;;;3.96;;
60336;SDS011;46978;50.288;28.624;2024-01-25T03:45:01;7.41;;;3.78;;
60336;SDS011;46978;50.288;28.624;2024-01-25T03:46:02;8.20;;;3.61;;
60336;SDS011;46978;50.288;28.624;2024-01-25T03:47:04;7.16;;;3.43;;
60336;SDS011;46978;50.288;28.624;2024-01-25T03:48:06;7.64;;;4.16;;
60336;SDS011;46978;50.288;28.624;2024-01-25T03:49:08;7.11;;;3.89;;
60336;SDS011;46978;50.288;28.624;2024-01-25T03:50:10;9.77;;;4.05;;
60336;SDS011;46978;50.288;28.624;2024-01-25T03:51:12;5.86;;;3.33;;
60336;SDS011;46978;50.288;28.624;2024-01-25T03:53:35;6.25;;;3.86;;
60336;SDS011;46978;50.288;28.624;2024-01-25T03:54:37;8.29;;;3.95;;
60336;SDS011;46978;50.288;28.624;2024-01-25T03:55:38;9.01;;;3.64;;
60336;SDS011;46978;50.288;28.624;2024-01-25T03:56:41;7.30;;;3.82;;
60336;SDS011;46978;50.288;28.624;2024-01-25T03:57:44;6.78;;;3.69;;
60336;SDS011;46978;50.288;28.624;2024-01-25T03:58:46;7.41;;;3.62;;
60336;SDS011;46978;50.288;28.624;2024-01-25T03:59:47;5.68;;;3.60;;
60336;SDS011;46978;50.288;28.624;2024-01-25T04:00:49;7.93;;;3.84;;
60336;SDS011;46978;50.288;28.624;2024-01-25T04:01:50;7.99;;;3.91;;
60336;SDS011;46978;50.288;28.624;2024-01-25T04:02:52;8.03;;;3.86;;
60336;SDS011;46978;50.288;28.624;2024-01-25T04:03:54;7.71;;;3.93;;
60336;SDS011;46978;50.288;28.624;2024-01-25T04:04:55;7.84;;;4.37;;
60336;SDS011;46978;50.288;28.624;2024-01-25T04:05:57;7.49;;;4.18;;
60336;SDS011;46978;50.288;28.624;2024-01-25T04:06:59;6.64;;;3.64;;
60336;SDS011;46978;50.288;28.624;2024-01-25T04:08:01;8.01;;;4.41;;
60336;SDS011;46978;50.288;28.624;2024-01-25T04:09:02;7.90;;;4.24;;
60336;SDS011;46978;50.288;28.624;2024-01-25T04:10:05;8.83;;;4.13;;
60336;SDS011;46978;50.288;28.624;2024-01-25T04:11:07;7.82;;;3.93;;
60336;SDS011;46978;50.288;28.624;2024-01-25T04:12:08;6.91;;;3.84;;
60336;SDS011;46978;50.288;28.624;2024-01-25T04:13:10;7.51;;;4.41;;
60336;SDS011;46978;50.288;28.624;2024-01-25T04:14:12;7.76;;;3.87;;
60336;SDS011;46978;50.288;28.624;2024-01-25T04:15:13;7.41;;;3.56;;
60336;SDS011;46978;50.288;28.624;2024-01-25T04:16:16;5.60;;;3.81;;
60336;SDS011;46978;50.288;28.624;2024-01-25T04:17:17;7.63;;;3.99;;
60336;SDS011;46978;50.288;28.624;2024-01-25T04:18:19;9.94;;;4.00;;
60336;SDS011;46978;50.288;28.624;2024-01-25T04:19:22;7.24;;;4.19;;
60336;SDS011;46978;50.288;28.624;2024-01-25T04:20:23;9.61;;;3.94;;
60336;SDS011;46978;50.288;28.624;2024-01-25T04:21:26;8.99;;;3.72;;
60336;SDS011;46978;50.288;28.624;2024-01-25T04:22:28;7.83;;;4.01;;
60336;SDS011;46978;50.288;28.624;2024-01-25T04:23:29;8.24;;;3.68;;
60336;SDS011;46978;50.288;28.624;2024-01-25T04:24:31;7.89;;;3.71;;
60336;SDS011;46978;50.288;28.624;2024-01-25T04:25:33;8.35;;;3.94;;
60336;SDS011;46978;50.288;28.624;2024-01-25T04:26:35;8.45;;;3.78;;
60336;SDS011;46978;50.288;28.624;2024-01-25T04:27:37;8.80;;;3.83;;
60336;SDS011;46978;50.288;28.624;2024-01-25T04:28:43;9.98;;;4.07;;
60336;SDS011;46978;50.288;28.624;2024-01-25T04:29:44;8.62;;;4.16;;
60336;SDS011;46978;50.288;28.624;2024-01-25T04:30:47;9.03;;;4.29;;
60336;SDS011;46978;50.288;28.624;2024-01-25T04:31:48;8.23;;;3.92;;
60336;SDS011;46978;50.288;28.624;2024-01-25T04:32:50;6.97;;;4.10;;
60336;SDS011;46978;50.288;28.624;2024-01-25T04:33:52;6.96;;;4.14;;
60336;SDS011;46978;50.288;28.624;2024-01-25T04:34:53;7.96;;;3.99;;
60336;SDS011;46978;50.288;28.624;2024-01-25T04:35:55;11.11;;;4.66;;
60336;SDS011;46978;50.288;28.624;2024-01-25T04:36:57;8.98;;;4.36;;
60336;SDS011;46978;50.288;28.624;2024-01-25T04:37:58;9.09;;;4.28;;
60336;SDS011;46978;50.288;28.624;2024-01-25T04:39:00;9.85;;;5.19;;
60336;SDS011;46978;50.288;28.624;2024-01-25T04:40:02;9.16;;;4.87;;
60336;SDS011;46978;50.288;28.624;2024-01-25T04:41:04;9.77;;;4.45;;
60336;SDS011;46978;50.288;28.624;2024-01-25T04:42:05;10.77;;;4.44;;
60336;SDS011;46978;50.288;28.624;2024-01-25T04:43:07;9.47;;;4.25;;
60336;SDS011;46978;50.288;28.624;2024-01-25T04:44:08;8.67;;;4.42;;
60336;SDS011;46978;50.288;28.624;2024-01-25T04:45:10;7.99;;;4.85;;
60336;SDS011;46978;50.288;28.624;2024-01-25T04:46:14;8.19;;;4.66;;
60336;SDS011;46978;50.288;28.624;2024-01-25T04:47:15;10.11;;;4.68;;
60336;SDS011;46978;50.288;28.624;2024-01-25T04:48:17;8.56;;;4.44;;
60336;SDS011;46978;50.288;28.624;2024-01-25T04:49:19;9.27;;;4.76;;
60336;SDS011;46978;50.288;28.624;2024-01-25T04:50:22;9.59;;;4.33;;
60336;SDS011;46978;50.288;28.624;2024-01-25T04:51:24;9.77;;;5.65;;
60336;SDS011;46978;50.288;28.624;2024-01-25T04:52:25;10.14;;;4.97;;
60336;SDS011;46978;50.288;28.624;2024-01-25T04:53:27;12.60;;;6.65;;
60336;SDS011;46978;50.288;28.624;2024-01-25T04:54:28;12.10;;;5.86;;
60336;SDS011;46978;50.288;28.624;2024-01-25T04:55:32;12.23;;;5.41;;
60336;SDS011;46978;50.288;28.624;2024-01-25T04:56:33;12.91;;;6.56;;
60336;SDS011;46978;50.288;28.624;2024-01-25T04:57:35;9.42;;;4.88;;
60336;SDS011;46978;50.288;28.624;2024-01-25T04:58:36;11.68;;;5.60;;
60336;SDS011;46978;50.288;28.624;2024-01-25T04:59:38;12.58;;;4.84;;
60336;SDS011;46978;50.288;28.624;2024-01-25T05:00:40;8.99;;;4.63;;
60336;SDS011;46978;50.288;28.624;2024-01-25T05:01:42;9.08;;;4.54;;
60336;SDS011;46978;50.288;28.624;2024-01-25T05:02:43;10.25;;;4.46;;
60336;SDS011;46978;50.288;28.624;2024-01-25T05:03:45;13.11;;;4.81;;
60336;SDS011;46978;50.288;28.624;2024-01-25T05:04:46;10.56;;;5.14;;
60336;SDS011;46978;50.288;28.624;2024-01-25T05:05:48;13.09;;;4.69;;
60336;SDS011;46978;50.288;28.624;2024-01-25T05:06:50;11.69;;;5.66;;
60336;SDS011;46978;50.288;28.624;2024-01-25T05:07:53;14.28;;;5.84;;
60336;SDS011;46978;50.288;28.624;2024-01-25T05:08:54;10.86;;;5.05;;
60336;SDS011;46978;50.288;28.624;2024-01-25T05:09:56;11.44;;;5.30;;
60336;SDS011;46978;50.288;28.624;2024-01-25T05:10:58;11.44;;;5.33;;
60336;SDS011;46978;50.288;28.624;2024-01-25T05:11:59;10.76;;;5.91;;
60336;SDS011;46978;50.288;28.624;2024-01-25T05:13:01;12.19;;;5.44;;
60336;SDS011;46978;50.288;28.624;2024-01-25T05:14:02;10.06;;;5.19;;
60336;SDS011;46978;50.288;28.624;2024-01-25T05:15:05;12.23;;;6.88;;
60336;SDS011;46978;50.288;28.624;2024-01-25T05:16:07;11.75;;;4.34;;
60336;SDS011;46978;50.288;28.624;2024-01-25T05:17:09;10.61;;;5.00;;
60336;SDS011;46978;50.288;28.624;2024-01-25T05:18:10;10.06;;;5.19;;
60336;SDS011;46978;50.288;28.624;2024-01-25T05:19:12;7.89;;;4.65;;
60336;SDS011;46978;50.288;28.624;2024-01-25T05:20:15;11.95;;;5.15;;
60336;SDS011;46978;50.288;28.624;2024-01-25T05:21:17;13.37;;;7.24;;
60336;SDS011;46978;50.288;28.624;2024-01-25T05:22:18;9.94;;;5.93;;
60336;SDS011;46978;50.288;28.624;2024-01-25T05:23:20;12.93;;;6.52;;
60336;SDS011;46978;50.288;28.624;2024-01-25T05:24:21;13.40;;;6.29;;
60336;SDS011;46978;50.288;28.624;2024-01-25T05:25:25;10.05;;;4.83;;
60336;SDS011;46978;50.288;28.624;2024-01-25T05:26:27;10.30;;;4.93;;
60336;SDS011;46978;50.288;28.624;2024-01-25T05:27:28;9.40;;;4.67;;
60336;SDS011;46978;50.288;28.624;2024-01-25T05:28:30;7.04;;;4.21;;
60336;SDS011;46978;50.288;28.624;2024-01-25T05:29:31;9.32;;;4.52;;
60336;SDS011;46978;50.288;28.624;2024-01-25T05:30:33;9.61;;;4.24;;
60336;SDS011;46978;50.288;28.624;2024-01-25T05:31:35;9.88;;;4.85;;
60336;SDS011;46978;50.288;28.624;2024-01-25T05:32:37;8.30;;;3.97;;
60336;SDS011;46978;50.288;28.624;2024-01-25T05:33:39;8.14;;;4.10;;
60336;SDS011;46978;50.288;28.624;2024-01-25T05:34:41;11.11;;;4.85;;
60336;SDS011;46978;50.288;28.624;2024-01-25T05:35:42;7.54;;;3.49;;
60336;SDS011;46978;50.288;28.624;2024-01-25T05:36:44;8.44;;;4.01;;
60336;SDS011;46978;50.288;28.624;2024-01-25T05:37:45;8.14;;;4.21;;
60336;SDS011;46978;50.288;28.624;2024-01-25T05:38:47;7.74;;;4.31;;
60336;SDS011;46978;50.288;28.624;2024-01-25T05:39:48;6.52;;;4.07;;
60336;SDS011;46978;50.288;28.624;2024-01-25T05:40:50;10.91;;;3.51;;
60336;SDS011;46978;50.288;28.624;2024-01-25T05:41:52;11.24;;;4.83;;
60336;SDS011;46978;50.288;28.624;2024-01-25T05:42:53;7.76;;;3.59;;
60336;SDS011;46978;50.288;28.624;2024-01-25T05:43:55;9.13;;;4.32;;
60336;SDS011;46978;50.288;28.624;2024-01-25T05:44:56;7.43;;;4.13;;
60336;SDS011;46978;50.288;28.624;2024-01-25T05:45:58;9.86;;;3.56;;
60336;SDS011;46978;50.288;28.624;2024-01-25T05:47:00;8.75;;;3.75;;
60336;SDS011;46978;50.288;28.624;2024-01-25T05:48:01;8.34;;;4.28;;
60336;SDS011;46978;50.288;28.624;2024-01-25T05:49:03;7.35;;;3.81;;
60336;SDS011;46978;50.288;28.624;2024-01-25T05:50:06;8.68;;;4.13;;
60336;SDS011;46978;50.288;28.624;2024-01-25T05:51:07;9.97;;;4.33;;
60336;SDS011;46978;50.288;28.624;2024-01-25T05:52:09;6.96;;;3.64;;
60336;SDS011;46978;50.288;28.624;2024-01-25T05:53:10;8.81;;;4.56;;
60336;SDS011;46978;50.288;28.624;2024-01-25T05:54:12;9.64;;;4.89;;
60336;SDS011;46978;50.288;28.624;2024-01-25T05:55:14;7.79;;;4.89;;
60336;SDS011;46978;50.288;28.624;2024-01-25T05:56:16;9.69;;;4.31;;
60336;SDS011;46978;50.288;28.624;2024-01-25T05:57:17;8.23;;;4.81;;
60336;SDS011;46978;50.288;28.624;2024-01-25T05:58:19;8.78;;;4.38;;
60336;SDS011;46978;50.288;28.624;2024-01-25T05:59:20;10.64;;;5.53;;
60336;SDS011;46978;50.288;28.624;2024-01-25T06:00:22;8.69;;;4.35;;
60336;SDS011;46978;50.288;28.624;2024-01-25T06:01:24;8.04;;;3.90;;
60336;SDS011;46978;50.288;28.624;2024-01-25T06:02:25;12.26;;;6.21;;
60336;SDS011;46978;50.288;28.624;2024-01-25T06:03:27;9.19;;;4.29;;
60336;SDS011;46978;50.288;28.624;2024-01-25T06:04:29;13.36;;;5.10;;
60336;SDS011;46978;50.288;28.624;2024-01-25T06:05:30;9.31;;;5.50;;
60336;SDS011;46978;50.288;28.624;2024-01-25T06:06:32;9.37;;;5.64;;